Hays Regional Airport Hays US
ICAO: KHYS
IATA: HYS
Category: Medium
Scheduled Services: No

Elevation: 1999 ft
TransAlt. 18000 ft.

Airport Communications:
AWOS 3:125.525
KANSAS CITY CNTR:124.4
WICHITA RDO:122.3
CTAF/UNICOM:122.8

KHYS Zoom In..

If you have problems with the map follow the link
https://www.worldairports.se/pages/airport.php?
ICAO=KHYS

Runways:

(A) RW 04 length 4501 ft width 75 ft
---- / hdg 40

(B) RW 16 length 6501 ft width 100 ft
---- / hdg 159

(C) RW 22 length 4501 ft width 75 ft
---- / hdg 220

(D) RW 34 length 6501 ft width 100 ft
ILS 111.50 / hdg 339

Location; KHYS
Day. 18 / Time. 23.56 Zulu
* Altimeter: 30.27
* Temperature: 14° c. 57.2°f.
* Wind from: 180° Speed 12 kn.
Dewpoint: 06° c.
Visibility: 10 Statute Miles.
Clouds: Broken 6000 ft.
Clouds: Overcast 9000 ft.

KHYS 182356Z AUTO 18012KT 10SM BKN060 OVC090 14/06 A3027 RMK AO2 SLP256 T01440056 10189 20144 56014


Wind From 180°
Speed 12 kn.

 
 
jpsmedia.com for Web Design worldairports.se 2018   terms of use